Time,TemperatureF,DewpointF,PressureIn,WindDirection,WindDirectionDegrees,WindSpeedMPH,WindSpeedGustMPH,Humidity,HourlyPrecipIn,Conditions,Clouds,dailyrainin,SoftwareType,DateUTC
2013-04-14 00:00:00,65.3,48.7,29.79,SSE,158,4.0,8.0,55,0.00,,SKC,0.00,VWS V14.01,2013-04-14 05:00:00,
2013-04-14 00:30:00,65.2,48.6,29.80,SSE,158,4.0,9.0,55,0.00,,SKC,0.00,VWS V14.01,2013-04-14 05:30:00,
2013-04-14 01:00:00,64.2,48.2,29.79,SSE,158,4.0,10.0,56,0.00,,SKC,0.00,VWS V14.01,2013-04-14 06:00:00,
2013-04-14 01:30:00,64.1,49.0,29.79,South,180,5.0,13.0,58,0.00,,SKC,0.00,VWS V14.01,2013-04-14 06:30:00,
2013-04-14 02:00:00,64.0,49.8,29.79,SSE,158,4.0,9.0,60,0.00,,SKC,0.00,VWS V14.01,2013-04-14 07:00:00,
2013-04-14 02:30:00,64.0,50.7,29.79,SSW,202,3.0,7.0,62,0.00,,SKC,0.00,VWS V14.01,2013-04-14 07:30:00,
2013-04-14 03:00:00,63.5,51.5,29.77,SSW,202,3.0,6.0,65,0.00,,SKC,0.00,VWS V14.01,2013-04-14 08:00:00,
2013-04-14 03:30:00,63.0,51.9,29.76,SSW,202,2.0,6.0,67,0.00,,SKC,0.00,VWS V14.01,2013-04-14 08:30:00,
2013-04-14 04:00:00,62.5,51.8,29.76,South,180,2.0,6.0,68,0.00,,SKC,0.00,VWS V14.01,2013-04-14 09:00:00,
2013-04-14 04:30:00,61.8,51.9,29.74,SSW,202,3.0,7.0,70,0.00,,SKC,0.00,VWS V14.01,2013-04-14 09:30:00,
2013-04-14 05:00:00,60.7,52.4,29.73,South,180,3.0,7.0,74,0.00,,SKC,0.00,VWS V14.01,2013-04-14 10:00:00,
2013-04-14 05:30:00,59.5,51.9,29.72,South,180,3.0,7.0,76,0.00,,SKC,0.00,VWS V14.01,2013-04-14 10:30:00,
2013-04-14 06:00:00,59.4,52.5,29.72,SSE,158,3.0,8.0,78,0.00,,SKC,0.00,VWS V14.01,2013-04-14 11:00:00,
2013-04-14 06:30:00,58.6,52.5,29.73,South,180,3.0,7.0,80,0.00,,SKC,0.00,VWS V14.01,2013-04-14 11:30:00,
2013-04-14 07:00:00,59.4,52.5,29.72,SSE,158,3.0,8.0,78,0.00,,SKC,0.00,VWS V14.01,2013-04-14 12:00:00,
2013-04-14 07:07:00,57.7,52.6,29.74,SSW,204,3.0,5.0,83,0.00,,SKC,0.00,VWS V14.01,2013-04-14 12:07:00,
2013-04-14 07:13:00,57.6,52.5,29.74,South,175,3.0,5.0,83,0.00,,SKC,0.00,VWS V14.01,2013-04-14 12:13:00,
2013-04-14 07:19:00,57.6,52.8,29.74,South,173,2.0,6.0,84,0.00,,SKC,0.00,VWS V14.01,2013-04-14 12:19:00,
2013-04-14 07:25:00,57.6,52.8,29.74,SE,133,1.0,8.0,84,0.00,,SKC,0.00,VWS V14.01,2013-04-14 12:25:00,
2013-04-14 07:30:00,58.6,52.5,29.73,South,180,3.0,7.0,80,0.00,,SKC,0.00,VWS V14.01,2013-04-14 12:30:00,
2013-04-14 07:31:00,57.7,52.9,29.74,East,82,3.0,4.0,84,0.00,,SKC,0.00,VWS V14.01,2013-04-14 12:31:00,
2013-04-14 07:37:00,57.8,53.0,29.74,South,173,2.0,7.0,84,0.00,,SKC,0.00,VWS V14.01,2013-04-14 12:37:00,
2013-04-14 07:43:00,57.9,53.1,29.74,SSE,159,3.0,7.0,84,0.00,,SKC,0.00,VWS V14.01,2013-04-14 12:43:00,
2013-04-14 07:49:00,58.1,53.3,29.74,SSE,165,3.0,8.0,84,0.00,,SKC,0.00,VWS V14.01,2013-04-14 12:49:00,
2013-04-14 07:55:00,58.3,53.5,29.74,South,173,5.0,8.0,84,0.00,,SKC,0.00,VWS V14.01,2013-04-14 12:55:00,
2013-04-14 08:00:00,58.5,54.0,29.74,South,186,6.0,8.0,85,0.00,,SKC,0.00,VWS V14.01,2013-04-14 13:00:00,
2013-04-14 08:01:00,58.5,54.0,29.74,South,186,6.0,8.0,85,0.00,,SKC,0.00,VWS V14.01,2013-04-14 13:01:00,
2013-04-14 08:08:00,59.0,54.5,29.74,SSW,200,3.0,8.0,85,0.00,,SKC,0.00,VWS V14.01,2013-04-14 13:08:00,
2013-04-14 08:14:00,59.3,54.8,29.74,SSE,163,6.0,13.0,85,0.00,,SKC,0.00,VWS V14.01,2013-04-14 13:14:00,
2013-04-14 08:20:00,59.6,55.1,29.75,SW,224,4.0,13.0,85,0.00,,SKC,0.00,VWS V14.01,2013-04-14 13:20:00,
2013-04-14 08:26:00,60.2,55.7,29.75,SSW,195,5.0,13.0,85,0.00,,SKC,0.00,VWS V14.01,2013-04-14 13:26:00,
2013-04-14 08:30:00,57.7,52.9,29.74,SSE,161,3.0,8.0,84,0.00,,SKC,0.00,VWS V14.01,2013-04-14 13:30:00,
2013-04-14 08:32:00,60.7,56.2,29.75,WSW,240,7.0,7.0,85,0.00,,SKC,0.00,VWS V14.01,2013-04-14 13:32:00,
2013-04-14 08:38:00,61.2,56.7,29.75,SSW,202,7.0,7.0,85,0.00,,SKC,0.00,VWS V14.01,2013-04-14 13:38:00,
2013-04-14 08:44:00,61.6,57.0,29.76,SW,229,6.0,11.0,85,0.00,,SKC,0.00,VWS V14.01,2013-04-14 13:44:00,
2013-04-14 08:50:00,62.1,57.2,29.76,South,175,1.0,11.0,84,0.00,,SKC,0.00,VWS V14.01,2013-04-14 13:50:00,
2013-04-14 08:56:00,62.6,57.7,29.76,SW,224,7.0,11.0,84,0.00,,SKC,0.00,VWS V14.01,2013-04-14 13:56:00,
2013-04-14 09:00:00,58.5,54.0,29.74,South,186,6.0,8.0,85,0.00,,SKC,0.00,VWS V14.01,2013-04-14 14:00:00,
2013-04-14 09:01:00,62.8,57.9,29.76,SW,214,6.0,11.0,84,0.00,,SKC,0.00,VWS V14.01,2013-04-14 14:01:00,
2013-04-14 09:08:00,63.2,58.0,29.76,SSW,209,8.0,11.0,83,0.00,,SKC,0.00,VWS V14.01,2013-04-14 14:08:00,
2013-04-14 09:14:00,63.3,57.7,29.75,WSW,250,6.0,13.0,82,0.00,,SKC,0.00,VWS V14.01,2013-04-14 14:14:00,
2013-04-14 09:20:00,63.2,58.3,29.75,SW,236,5.0,13.0,84,0.00,,SKC,0.00,VWS V14.01,2013-04-14 14:20:00,
2013-04-14 09:26:00,63.5,58.2,29.75,SSE,158,5.0,13.0,83,0.00,,SKC,0.00,VWS V14.01,2013-04-14 14:26:00,
2013-04-14 09:30:00,63.8,58.5,29.75,SW,219,7.0,13.0,83,0.00,,SKC,0.00,VWS V14.01,2013-04-14 14:30:00,
2013-04-14 09:32:00,63.8,58.2,29.75,SSW,204,4.0,12.0,82,0.00,,SKC,0.00,VWS V14.01,2013-04-14 14:32:00,
2013-04-14 09:38:00,64.1,58.5,29.75,SW,234,7.0,12.0,82,0.00,,SKC,0.00,VWS V14.01,2013-04-14 14:38:00,
2013-04-14 09:44:00,64.3,58.7,29.75,SSW,194,6.0,12.0,82,0.00,,SKC,0.00,VWS V14.01,2013-04-14 14:44:00,
2013-04-14 09:50:00,64.1,58.5,29.75,SW,222,10.0,13.0,82,0.00,,SKC,0.00,VWS V14.01,2013-04-14 14:50:00,
2013-04-14 10:00:00,63.9,58.6,29.74,SSE,167,3.0,14.0,83,0.00,,SKC,0.00,VWS V14.01,2013-04-14 15:00:00,
2013-04-14 10:06:00,63.7,58.5,29.74,SW,219,6.0,10.0,83,0.00,,SKC,0.00,VWS V14.01,2013-04-14 15:06:00,
2013-04-14 10:12:00,64.1,58.5,29.73,West,269,8.0,14.0,82,0.00,,SKC,0.00,VWS V14.01,2013-04-14 15:12:00,
2013-04-14 10:18:00,64.4,58.5,29.74,South,170,5.0,16.0,81,0.00,,SKC,0.00,VWS V14.01,2013-04-14 15:18:00,
2013-04-14 10:24:00,65.1,59.5,29.73,SW,233,9.0,16.0,82,0.00,,SKC,0.00,VWS V14.01,2013-04-14 15:24:00,
2013-04-14 10:30:00,65.2,58.9,29.73,South,171,7.0,16.0,80,0.00,,SKC,0.00,VWS V14.01,2013-04-14 15:30:00,
2013-04-14 10:36:00,65.4,59.4,29.73,SSW,206,8.0,12.0,81,0.00,,SKC,0.00,VWS V14.01,2013-04-14 15:36:00,
2013-04-14 10:42:00,65.8,59.5,29.73,SE,146,7.0,12.0,80,0.00,,SKC,0.00,VWS V14.01,2013-04-14 15:42:00,
2013-04-14 10:48:00,65.9,58.9,29.73,West,262,11.0,12.0,78,0.00,,SKC,0.00,VWS V14.01,2013-04-14 15:48:00,
2013-04-14 10:54:00,66.5,59.4,29.73,SSW,200,6.0,14.0,78,0.00,,SKC,0.00,VWS V14.01,2013-04-14 15:54:00,
2013-04-14 11:00:00,66.8,59.4,29.73,South,169,7.0,14.0,77,0.00,,SKC,0.00,VWS V14.01,2013-04-14 16:00:00,
2013-04-14 11:09:00,67.5,59.3,29.72,SSW,194,9.0,15.0,75,0.00,,SKC,0.00,VWS V14.01,2013-04-14 16:09:00,
2013-04-14 11:15:00,68.3,58.9,29.72,SSW,202,5.0,15.0,72,0.00,,SKC,0.00,VWS V14.01,2013-04-14 16:15:00,
2013-04-14 11:21:00,68.6,58.8,29.71,SSW,199,8.0,15.0,71,0.00,,SKC,0.00,VWS V14.01,2013-04-14 16:21:00,
2013-04-14 11:27:00,68.6,59.2,29.71,SSW,192,8.0,15.0,72,0.00,,SKC,0.00,VWS V14.01,2013-04-14 16:27:00,
2013-04-14 11:30:00,69.1,59.7,29.71,SW,228,8.0,15.0,72,0.00,,SKC,0.00,VWS V14.01,2013-04-14 16:30:00,
2013-04-14 11:33:00,69.3,59.5,29.71,WSW,250,11.0,12.0,71,0.00,,SKC,0.00,VWS V14.01,2013-04-14 16:33:00,
2013-04-14 11:39:00,69.0,59.2,29.71,WNW,284,11.0,12.0,71,0.00,,SKC,0.00,VWS V14.01,2013-04-14 16:39:00,
2013-04-14 11:45:00,69.0,59.6,29.68,SSW,211,5.0,16.0,72,0.00,,SKC,0.00,VWS V14.01,2013-04-14 16:45:00,
2013-04-14 11:51:00,69.9,59.7,29.70,SSE,154,9.0,16.0,70,0.00,,SKC,0.00,VWS V14.01,2013-04-14 16:51:00,
2013-04-14 11:57:00,69.8,59.6,29.70,SW,217,9.0,16.0,70,0.00,,SKC,0.00,VWS V14.01,2013-04-14 16:57:00,
2013-04-14 12:00:00,67.0,59.6,29.73,SSW,206,8.0,14.0,77,0.00,,SKC,0.00,VWS V14.01,2013-04-14 17:00:00,
2013-04-14 12:03:00,70.1,60.3,29.70,SSE,164,8.0,13.0,71,0.00,,SKC,0.00,VWS V14.01,2013-04-14 17:03:00,
2013-04-14 12:10:00,69.9,59.7,29.70,South,175,8.0,15.0,70,0.00,,SKC,0.00,VWS V14.01,2013-04-14 17:10:00,
2013-04-14 12:16:00,70.6,60.8,29.69,West,265,6.0,15.0,71,0.00,,SKC,0.00,VWS V14.01,2013-04-14 17:16:00,
2013-04-14 12:22:00,70.9,60.2,29.69,South,190,10.0,15.0,69,0.00,,SKC,0.00,VWS V14.01,2013-04-14 17:22:00,
2013-04-14 12:28:00,71.2,60.9,29.68,SE,133,4.0,15.0,70,0.00,,SKC,0.00,VWS V14.01,2013-04-14 17:28:00,
2013-04-14 12:30:00,69.1,59.7,29.71,SW,228,8.0,15.0,72,0.00,,SKC,0.00,VWS V14.01,2013-04-14 17:30:00,
2013-04-14 12:34:00,71.7,60.6,29.68,SSE,158,5.0,13.0,68,0.00,,SKC,0.00,VWS V14.01,2013-04-14 17:34:00,
2013-04-14 12:40:00,72.1,60.5,29.67,SW,220,10.0,18.0,67,0.00,,SKC,0.00,VWS V14.01,2013-04-14 17:40:00,
2013-04-14 12:49:00,72.6,61.0,29.67,SW,236,16.0,18.0,67,0.00,,SKC,0.00,VWS V14.01,2013-04-14 17:49:00,
2013-04-14 12:55:00,72.6,61.0,29.67,SSW,207,7.0,18.0,67,0.00,,SKC,0.00,VWS V14.01,2013-04-14 17:55:00,
2013-04-14 13:00:00,69.8,59.6,29.70,SSE,151,3.0,16.0,70,0.00,,SKC,0.00,VWS V14.01,2013-04-14 18:00:00,
2013-04-14 13:01:00,72.9,60.9,29.67,South,173,5.0,18.0,66,0.00,,SKC,0.00,VWS V14.01,2013-04-14 18:01:00,
2013-04-14 13:07:00,73.6,61.1,29.66,SSW,198,8.0,12.0,65,0.00,,SKC,0.00,VWS V14.01,2013-04-14 18:07:00,
2013-04-14 13:13:00,73.6,61.1,29.66,SSW,206,8.0,12.0,65,0.00,,SKC,0.00,VWS V14.01,2013-04-14 18:13:00,
2013-04-14 13:19:00,73.9,61.8,29.66,South,173,8.0,14.0,66,0.00,,SKC,0.00,VWS V14.01,2013-04-14 18:19:00,
2013-04-14 13:25:00,74.0,61.5,29.66,South,191,7.0,14.0,65,0.00,,SKC,0.00,VWS V14.01,2013-04-14 18:25:00,
2013-04-14 13:30:00,74.4,61.9,29.65,SSW,197,8.0,14.0,65,0.00,,SKC,0.00,VWS V14.01,2013-04-14 18:30:00,
2013-04-14 13:31:00,74.4,61.9,29.65,SSW,197,8.0,14.0,65,0.00,,SKC,0.00,VWS V14.01,2013-04-14 18:31:00,
2013-04-14 13:37:00,74.4,62.3,29.65,SSE,153,8.0,21.0,66,0.00,,SKC,0.00,VWS V14.01,2013-04-14 18:37:00,
2013-04-14 13:43:00,75.1,63.0,29.65,SE,138,10.0,21.0,66,0.00,,SKC,0.00,VWS V14.01,2013-04-14 18:43:00,
2013-04-14 13:49:00,75.3,62.3,29.64,SSW,200,11.0,21.0,64,0.00,,SKC,0.00,VWS V14.01,2013-04-14 18:49:00,
2013-04-14 13:55:00,75.6,63.0,29.64,SW,222,7.0,21.0,65,0.00,,SKC,0.00,VWS V14.01,2013-04-14 18:55:00,
2013-04-14 14:00:00,72.9,60.9,29.67,South,173,5.0,18.0,66,0.00,,SKC,0.00,VWS V14.01,2013-04-14 19:00:00,
2013-04-14 14:01:00,75.8,62.8,29.64,WSW,247,7.0,21.0,64,0.00,,SKC,0.00,VWS V14.01,2013-04-14 19:01:00,
2013-04-14 14:08:00,75.8,63.2,29.64,South,190,9.0,15.0,65,0.00,,SKC,0.00,VWS V14.01,2013-04-14 19:08:00,
2013-04-14 14:14:00,75.8,63.6,29.64,South,175,8.0,17.0,66,0.00,,SKC,0.00,VWS V14.01,2013-04-14 19:14:00,
2013-04-14 14:20:00,76.2,63.6,29.64,West,262,8.0,17.0,65,0.00,,SKC,0.00,VWS V14.01,2013-04-14 19:20:00,
2013-04-14 14:26:00,76.5,63.9,29.63,South,190,5.0,17.0,65,0.00,,SKC,0.00,VWS V14.01,2013-04-14 19:26:00,
2013-04-14 14:30:00,74.4,61.9,29.65,SSW,197,8.0,14.0,65,0.00,,SKC,0.00,VWS V14.01,2013-04-14 19:30:00,
2013-04-14 14:31:00,76.7,64.1,29.63,SW,225,8.0,17.0,65,0.00,,SKC,0.00,VWS V14.01,2013-04-14 19:31:00,
2013-04-14 14:38:00,76.2,64.4,29.63,South,185,10.0,16.0,67,0.00,,SKC,0.00,VWS V14.01,2013-04-14 19:38:00,
2013-04-14 14:44:00,76.8,64.6,29.63,SSW,194,8.0,17.0,66,0.00,,SKC,0.00,VWS V14.01,2013-04-14 19:44:00,
2013-04-14 14:50:00,77.1,64.9,29.62,SSW,199,7.0,17.0,66,0.00,,SKC,0.00,VWS V14.01,2013-04-14 19:50:00,
2013-04-14 14:56:00,77.1,64.4,29.62,SE,141,6.0,17.0,65,0.00,,SKC,0.00,VWS V14.01,2013-04-14 19:56:00,
2013-04-14 15:00:00,75.8,62.8,29.64,WSW,247,7.0,21.0,64,0.00,,SKC,0.00,VWS V14.01,2013-04-14 20:00:00,
2013-04-14 15:01:00,77.2,65.0,29.62,WNW,290,12.0,17.0,66,0.00,,SKC,0.00,VWS V14.01,2013-04-14 20:01:00,
2013-04-14 15:08:00,77.1,64.4,29.62,SSW,209,10.0,16.0,65,0.00,,SKC,0.00,VWS V14.01,2013-04-14 20:08:00,
2013-04-14 15:14:00,77.2,65.4,29.62,West,270,6.0,16.0,67,0.00,,SKC,0.00,VWS V14.01,2013-04-14 20:14:00,
2013-04-14 15:20:00,77.0,65.2,29.61,SSW,213,9.0,16.0,67,0.00,,SKC,0.00,VWS V14.01,2013-04-14 20:20:00,
2013-04-14 15:29:00,77.8,65.1,29.61,WSW,252,9.0,16.0,65,0.00,,SKC,0.00,VWS V14.01,2013-04-14 20:29:00,
2013-04-14 15:30:00,76.7,64.1,29.63,SW,225,8.0,17.0,65,0.00,,SKC,0.00,VWS V14.01,2013-04-14 20:30:00,
2013-04-14 15:35:00,78.1,64.9,29.61,West,281,8.0,12.0,64,0.00,,SKC,0.00,VWS V14.01,2013-04-14 20:35:00,
2013-04-14 15:41:00,77.8,65.1,29.61,SW,217,9.0,13.0,65,0.00,,SKC,0.00,VWS V14.01,2013-04-14 20:41:00,
2013-04-14 15:47:00,77.9,65.2,29.61,West,279,7.0,14.0,65,0.00,,SKC,0.00,VWS V14.01,2013-04-14 20:47:00,
2013-04-14 15:53:00,78.6,65.4,29.60,South,190,7.0,14.0,64,0.00,,SKC,0.00,VWS V14.01,2013-04-14 20:53:00,
2013-04-14 16:00:00,78.4,65.2,29.60,WNW,294,6.0,15.0,64,0.00,,SKC,0.00,VWS V14.01,2013-04-14 21:00:00,
2013-04-14 16:06:00,78.0,64.8,29.60,SE,134,7.0,16.0,64,0.00,,SKC,0.00,VWS V14.01,2013-04-14 21:06:00,
2013-04-14 16:12:00,78.5,65.8,29.59,SSE,151,6.0,16.0,65,0.00,,SKC,0.00,VWS V14.01,2013-04-14 21:12:00,
2013-04-14 16:18:00,78.6,66.3,29.59,SW,222,10.0,16.0,66,0.00,,SKC,0.00,VWS V14.01,2013-04-14 21:18:00,
2013-04-14 16:24:00,78.4,65.7,29.59,SSE,157,8.0,17.0,65,0.00,,SKC,0.00,VWS V14.01,2013-04-14 21:24:00,
2013-04-14 16:30:00,78.2,65.5,29.56,South,182,10.0,17.0,65,0.00,,SKC,0.00,VWS V14.01,2013-04-14 21:30:00,
2013-04-14 16:36:00,77.8,64.7,29.58,SSE,167,9.0,16.0,64,0.00,,SKC,0.00,VWS V14.01,2013-04-14 21:36:00,
2013-04-14 16:42:00,78.0,65.3,29.59,SW,221,6.0,16.0,65,0.00,,SKC,0.00,VWS V14.01,2013-04-14 21:42:00,
2013-04-14 16:48:00,77.8,64.7,29.56,SE,140,8.0,19.0,64,0.00,,SKC,0.00,VWS V14.01,2013-04-14 21:48:00,
2013-04-14 16:54:00,78.3,65.6,29.59,SSE,163,9.0,19.0,65,0.00,,SKC,0.00,VWS V14.01,2013-04-14 21:54:00,
2013-04-14 17:00:00,78.4,66.1,29.57,WNW,298,15.0,19.0,66,0.00,,SKC,0.00,VWS V14.01,2013-04-14 22:00:00,
2013-04-14 17:06:00,78.1,64.9,29.57,SW,235,12.0,14.0,64,0.00,,SKC,0.00,VWS V14.01,2013-04-14 22:06:00,
2013-04-14 17:12:00,78.2,65.0,29.57,WSW,247,14.0,15.0,64,0.00,,SKC,0.00,VWS V14.01,2013-04-14 22:12:00,
2013-04-14 17:18:00,78.2,65.5,29.59,SSW,193,7.0,15.0,65,0.00,,SKC,0.00,VWS V14.01,2013-04-14 22:18:00,
2013-04-14 17:24:00,78.1,65.8,29.55,SSE,165,7.0,15.0,66,0.00,,SKC,0.00,VWS V14.01,2013-04-14 22:24:00,
2013-04-14 17:30:00,77.9,65.2,29.57,SW,224,10.0,15.0,65,0.00,,SKC,0.00,VWS V14.01,2013-04-14 22:30:00,
2013-04-14 17:36:00,78.1,65.8,29.55,SSW,199,13.0,13.0,66,0.00,,SKC,0.00,VWS V14.01,2013-04-14 22:36:00,
2013-04-14 17:42:00,78.1,65.8,29.58,SW,225,8.0,13.0,66,0.00,,SKC,0.00,VWS V14.01,2013-04-14 22:42:00,
2013-04-14 17:48:00,78.2,65.5,29.55,SW,223,8.0,13.0,65,0.00,,SKC,0.00,VWS V14.01,2013-04-14 22:48:00,
2013-04-14 17:54:00,78.2,65.9,29.54,SSE,167,5.0,13.0,66,0.00,,SKC,0.00,VWS V14.01,2013-04-14 22:54:00,
2013-04-14 18:00:00,78.2,65.9,29.59,SW,225,5.0,13.0,66,0.00,,SKC,0.00,VWS V14.01,2013-04-14 23:00:00,
2013-04-14 18:06:00,78.0,65.7,29.55,SSW,199,5.0,16.0,66,0.00,,SKC,0.00,VWS V14.01,2013-04-14 23:06:00,
2013-04-14 18:12:00,77.7,65.4,29.55,SSW,198,9.0,16.0,66,0.00,,SKC,0.00,VWS V14.01,2013-04-14 23:12:00,
2013-04-14 18:18:00,77.6,65.3,29.50,ESE,106,5.0,16.0,66,0.00,,SKC,0.00,VWS V14.01,2013-04-14 23:18:00,
2013-04-14 18:25:00,77.3,65.1,29.50,SW,224,9.0,16.0,66,0.00,,SKC,0.00,VWS V14.01,2013-04-14 23:25:00,
2013-04-14 18:30:00,77.9,65.6,29.57,SSW,203,7.0,15.0,66,0.00,,SKC,0.00,VWS V14.01,2013-04-14 23:30:00,
2013-04-14 18:31:00,77.3,65.5,29.48,SE,142,6.0,16.0,67,0.00,,SKC,0.00,VWS V14.01,2013-04-14 23:31:00,
2013-04-14 18:37:00,77.2,65.4,29.48,SE,140,5.0,13.0,67,0.00,,SKC,0.00,VWS V14.01,2013-04-14 23:37:00,
2013-04-14 18:43:00,77.1,65.3,29.48,South,182,11.0,15.0,67,0.00,,SKC,0.00,VWS V14.01,2013-04-14 23:43:00,
2013-04-14 18:49:00,77.0,65.6,29.42,SSW,201,5.0,15.0,68,0.00,,SKC,0.00,VWS V14.01,2013-04-14 23:49:00,
2013-04-14 18:55:00,76.9,65.5,29.48,SSE,152,11.0,15.0,68,0.00,,SKC,0.00,VWS V14.01,2013-04-14 23:55:00,
2013-04-14 19:00:00,76.9,66.0,29.48,SE,142,7.0,16.0,69,0.00,,SKC,0.00,VWS V14.01,2013-04-15 00:00:00,
2013-04-14 19:01:00,76.9,66.0,29.48,SE,137,10.0,16.0,69,0.00,,SKC,0.00,VWS V14.01,2013-04-15 00:01:00,
2013-04-14 19:07:00,76.8,65.9,29.38,SSE,161,6.0,14.0,69,0.00,,SKC,0.00,VWS V14.01,2013-04-15 00:07:00,
2013-04-14 19:13:00,76.6,65.7,29.38,SE,134,5.0,14.0,69,0.00,,SKC,0.00,VWS V14.01,2013-04-15 00:13:00,
2013-04-14 19:19:00,76.4,65.9,29.43,SSE,158,6.0,14.0,70,0.00,,SKC,0.00,VWS V14.01,2013-04-15 00:19:00,
2013-04-14 19:25:00,76.2,65.7,29.55,SSE,163,6.0,14.0,70,0.00,,SKC,0.00,VWS V14.01,2013-04-15 00:25:00,
2013-04-14 19:30:00,77.3,65.5,29.48,SSW,193,7.0,16.0,67,0.00,,SKC,0.00,VWS V14.01,2013-04-15 00:30:00,
2013-04-14 19:31:00,76.0,65.5,29.56,South,186,7.0,7.0,70,0.00,,SKC,0.00,VWS V14.01,2013-04-15 00:31:00,
2013-04-14 19:37:00,75.8,65.7,29.56,SW,215,4.0,10.0,71,0.00,,SKC,0.00,VWS V14.01,2013-04-15 00:37:00,
2013-04-14 19:43:00,75.5,65.4,29.59,South,175,4.0,10.0,71,0.00,,SKC,0.00,VWS V14.01,2013-04-15 00:43:00,
2013-04-14 19:49:00,75.4,65.8,29.58,SSE,165,7.0,10.0,72,0.00,,SKC,0.00,VWS V14.01,2013-04-15 00:49:00,
2013-04-14 19:55:00,75.0,65.4,29.57,South,180,4.0,10.0,72,0.00,,SKC,0.00,VWS V14.01,2013-04-15 00:55:00,
2013-04-14 20:00:00,76.9,66.0,29.48,SE,142,7.0,16.0,69,0.00,,SKC,0.00,VWS V14.01,2013-04-15 01:00:00,
2013-04-14 20:01:00,74.8,65.6,29.56,SSE,165,4.0,10.0,73,0.00,,SKC,0.00,VWS V14.01,2013-04-15 01:01:00,
2013-04-14 20:07:00,74.7,65.9,29.60,SSE,167,2.0,7.0,74,0.00,,SKC,0.00,VWS V14.01,2013-04-15 01:07:00,
2013-04-14 20:13:00,74.4,65.6,29.60,SSW,205,6.0,7.0,74,0.00,,SKC,0.00,VWS V14.01,2013-04-15 01:13:00,
2013-04-14 20:20:00,74.2,65.8,29.60,SSW,202,7.0,10.0,75,0.00,,SKC,0.00,VWS V14.01,2013-04-15 01:20:00,
2013-04-14 20:26:00,74.2,65.8,29.60,South,182,3.0,10.0,75,0.00,,SKC,0.00,VWS V14.01,2013-04-15 01:26:00,
2013-04-14 20:30:00,76.0,65.5,29.57,SSW,205,7.0,14.0,70,0.00,,SKC,0.00,VWS V14.01,2013-04-15 01:30:00,
2013-04-14 20:31:00,74.0,65.6,29.56,SE,125,5.0,10.0,75,0.00,,SKC,0.00,VWS V14.01,2013-04-15 01:31:00,
2013-04-14 20:38:00,74.0,65.6,29.60,WSW,257,4.0,10.0,75,0.00,,SKC,0.00,VWS V14.01,2013-04-15 01:38:00,
2013-04-14 20:44:00,73.9,65.5,29.58,South,189,5.0,10.0,75,0.00,,SKC,0.00,VWS V14.01,2013-04-15 01:44:00,
2013-04-14 20:50:00,73.6,65.6,29.60,SSE,167,3.0,10.0,76,0.00,,SKC,0.00,VWS V14.01,2013-04-15 01:50:00,
2013-04-14 20:59:00,73.2,65.2,29.61,SSE,148,2.0,10.0,76,0.00,,SKC,0.00,VWS V14.01,2013-04-15 01:59:00,
2013-04-14 21:00:00,73.1,65.5,29.57,South,184,3.0,10.0,77,0.00,,SKC,0.00,VWS V14.01,2013-04-15 02:00:00,
2013-04-14 21:05:00,73.0,65.4,29.57,SSE,154,6.0,6.0,77,0.00,,SKC,0.00,VWS V14.01,2013-04-15 02:05:00,
2013-04-14 21:14:00,72.7,65.4,29.57,SE,130,3.0,7.0,78,0.00,,SKC,0.00,VWS V14.01,2013-04-15 02:14:00,
2013-04-14 21:20:00,72.5,65.3,29.58,SSE,165,4.0,8.0,78,0.00,,SKC,0.00,VWS V14.01,2013-04-15 02:20:00,
2013-04-14 21:26:00,72.5,65.3,29.59,SE,142,5.0,8.0,78,0.00,,SKC,0.00,VWS V14.01,2013-04-15 02:26:00,
2013-04-14 21:30:00,74.0,65.6,29.56,SE,125,5.0,10.0,75,0.00,,SKC,0.00,VWS V14.01,2013-04-15 02:30:00,
2013-04-14 21:32:00,72.6,65.3,29.58,South,179,3.0,8.0,78,0.00,,SKC,0.00,VWS V14.01,2013-04-15 02:32:00,
2013-04-14 21:38:00,72.4,65.2,29.60,SW,216,4.0,8.0,78,0.00,,SKC,0.00,VWS V14.01,2013-04-15 02:38:00,
2013-04-14 21:44:00,72.2,65.3,29.63,SE,131,3.0,8.0,79,0.00,,SKC,0.00,VWS V14.01,2013-04-15 02:44:00,
2013-04-14 21:50:00,72.0,65.1,29.63,South,180,2.0,8.0,79,0.00,,SKC,0.00,VWS V14.01,2013-04-15 02:50:00,
2013-04-14 21:56:00,71.9,65.0,29.63,SSE,148,4.0,8.0,79,0.00,,SKC,0.00,VWS V14.01,2013-04-15 02:56:00,
2013-04-14 22:00:00,73.1,65.5,29.57,South,184,3.0,10.0,77,0.00,,SKC,0.00,VWS V14.01,2013-04-15 03:00:00,
2013-04-14 22:02:00,71.7,64.8,29.59,South,182,4.0,6.0,79,0.00,,SKC,0.00,VWS V14.01,2013-04-15 03:02:00,
2013-04-14 22:08:00,71.8,65.3,29.61,SE,140,5.0,9.0,80,0.00,,SKC,0.00,VWS V14.01,2013-04-15 03:08:00,
2013-04-14 22:14:00,71.8,65.3,29.59,SSE,153,2.0,9.0,80,0.00,,SKC,0.00,VWS V14.01,2013-04-15 03:14:00,
2013-04-14 22:20:00,71.7,65.2,29.59,South,182,5.0,9.0,80,0.00,,SKC,0.00,VWS V14.01,2013-04-15 03:20:00,
2013-04-14 22:26:00,71.6,65.1,29.62,SSE,150,6.0,9.0,80,0.00,,SKC,0.00,VWS V14.01,2013-04-15 03:26:00,
2013-04-14 22:30:00,72.6,65.3,29.60,SSE,157,5.0,8.0,78,0.00,,SKC,0.00,VWS V14.01,2013-04-15 03:30:00,
2013-04-14 22:32:00,71.5,65.0,29.64,SSE,148,4.0,8.0,80,0.00,,SKC,0.00,VWS V14.01,2013-04-15 03:32:00,
2013-04-14 22:38:00,71.5,65.4,29.61,SE,140,9.0,11.0,81,0.00,,SKC,0.00,VWS V14.01,2013-04-15 03:38:00,
2013-04-14 22:44:00,71.5,65.4,29.60,SE,124,6.0,11.0,81,0.00,,SKC,0.00,VWS V14.01,2013-04-15 03:44:00,
2013-04-14 22:50:00,71.4,65.3,29.61,SE,131,5.0,11.0,81,0.00,,SKC,0.00,VWS V14.01,2013-04-15 03:50:00,
2013-04-14 22:56:00,71.3,65.2,29.60,South,172,4.0,11.0,81,0.00,,SKC,0.00,VWS V14.01,2013-04-15 03:56:00,
2013-04-14 23:00:00,71.8,64.9,29.63,SSW,194,3.0,8.0,79,0.00,,SKC,0.00,VWS V14.01,2013-04-15 04:00:00,
2013-04-14 23:01:00,71.3,65.2,29.59,SE,142,2.0,11.0,81,0.00,,SKC,0.00,VWS V14.01,2013-04-15 04:01:00,
2013-04-14 23:03:00,71.2,65.1,29.59,SSE,149,6.0,12.0,81,0.00,,SKC,0.00,VWS V14.01,2013-04-15 04:03:00,
2013-04-14 23:09:00,71.2,65.4,29.59,SSE,158,10.0,12.0,82,0.00,,SKC,0.00,VWS V14.01,2013-04-15 04:09:00,
2013-04-14 23:12:00,71.3,65.5,29.62,SSW,211,6.0,12.0,82,0.00,,SKC,0.00,VWS V14.01,2013-04-15 04:12:00,
2013-04-14 23:18:00,71.4,65.6,29.63,South,169,4.0,12.0,82,0.00,,SKC,0.00,VWS V14.01,2013-04-15 04:18:00,
2013-04-14 23:24:00,71.3,65.5,29.64,South,183,6.0,12.0,82,0.00,,SKC,0.00,VWS V14.01,2013-04-15 04:24:00,
2013-04-14 23:30:00,71.3,65.5,29.64,South,173,5.0,13.0,82,0.00,,SKC,0.00,VWS V14.01,2013-04-15 04:30:00,
2013-04-14 23:36:00,71.3,65.5,29.64,South,180,9.0,9.0,82,0.00,,SKC,0.00,VWS V14.01,2013-04-15 04:36:00,
2013-04-14 23:42:00,71.4,65.6,29.64,SE,139,11.0,11.0,82,0.00,,SKC,0.00,VWS V14.01,2013-04-15 04:42:00,
2013-04-14 23:48:00,71.4,65.6,29.64,SSE,165,6.0,11.0,82,0.00,,SKC,0.00,VWS V14.01,2013-04-15 04:48:00,
2013-04-14 23:54:00,71.3,65.5,29.64,SSE,154,4.0,11.0,82,0.00,,SKC,0.00,VWS V14.01,2013-04-15 04:54:00,